createdAt,value
2022-09-13T00:00:16.447Z,954.77
2022-09-13T00:01:16.483Z,954.78
2022-09-13T00:02:16.499Z,954.74
2022-09-13T00:03:16.388Z,954.73
2022-09-13T00:04:16.520Z,954.76
2022-09-13T00:05:16.361Z,954.78
2022-09-13T00:06:16.329Z,954.72
2022-09-13T00:07:16.322Z,954.69
2022-09-13T00:08:16.341Z,954.69
2022-09-13T00:09:16.288Z,954.69
2022-09-13T00:10:16.377Z,954.69
2022-09-13T00:11:16.262Z,954.71
2022-09-13T00:12:16.270Z,954.73
2022-09-13T00:13:16.246Z,954.73
2022-09-13T00:14:16.260Z,954.73
2022-09-13T00:15:16.209Z,954.71
2022-09-13T00:16:16.491Z,954.70
2022-09-13T00:17:16.180Z,954.69
2022-09-13T00:18:16.177Z,954.72
2022-09-13T00:19:16.170Z,954.75
2022-09-13T00:20:16.168Z,954.72
2022-09-13T00:21:16.124Z,954.70
2022-09-13T00:22:16.327Z,954.75
2022-09-13T00:23:16.105Z,954.74
2022-09-13T00:24:16.102Z,954.69
2022-09-13T00:25:16.069Z,954.69
2022-09-13T00:26:16.096Z,954.68
2022-09-13T00:27:16.039Z,954.67
2022-09-13T00:28:16.190Z,954.68
2022-09-13T00:29:16.022Z,954.65
2022-09-13T00:30:16.013Z,954.68
2022-09-13T00:31:16.054Z,954.66
2022-09-13T00:32:16.010Z,954.65
2022-09-13T00:33:15.958Z,954.63
2022-09-13T00:34:16.073Z,954.62
2022-09-13T00:35:15.934Z,954.62
2022-09-13T00:36:15.919Z,954.64
2022-09-13T00:37:15.908Z,954.66
2022-09-13T00:38:15.938Z,954.66
2022-09-13T00:39:15.877Z,954.69
2022-09-13T00:40:16.076Z,954.63
2022-09-13T00:41:15.841Z,954.66
2022-09-13T00:42:15.838Z,954.70
2022-09-13T00:43:15.824Z,954.66
2022-09-13T00:44:15.999Z,954.74
2022-09-13T00:45:15.815Z,954.70
2022-09-13T00:46:20.441Z,954.69
2022-09-13T00:47:15.765Z,954.60
2022-09-13T00:48:15.750Z,954.64
2022-09-13T00:49:15.746Z,954.64
2022-09-13T00:50:15.755Z,954.67
2022-09-13T00:51:15.723Z,954.64
2022-09-13T00:52:15.799Z,954.66
2022-09-13T00:53:15.695Z,954.69
2022-09-13T00:54:15.661Z,954.68
2022-09-13T00:55:15.650Z,954.71
2022-09-13T00:56:15.676Z,954.66
2022-09-13T00:57:15.631Z,954.65
2022-09-13T00:58:15.824Z,954.68
2022-09-13T00:59:15.618Z,954.61
2022-09-13T01:00:15.599Z,954.64
2022-09-13T01:01:15.627Z,954.70
2022-09-13T01:02:15.648Z,954.71
2022-09-13T01:03:15.539Z,954.70
2022-09-13T01:04:15.682Z,954.74
2022-09-13T01:05:15.517Z,954.73
2022-09-13T01:06:15.511Z,954.74
2022-09-13T01:07:15.481Z,954.71
2022-09-13T01:08:15.499Z,954.74
2022-09-13T01:09:15.465Z,954.67
2022-09-13T01:10:15.525Z,954.65
2022-09-13T01:11:15.437Z,954.72
2022-09-13T01:12:15.412Z,954.63
2022-09-13T01:13:15.402Z,954.64
2022-09-13T01:14:15.579Z,954.66
2022-09-13T01:15:15.379Z,954.67
2022-09-13T01:16:15.659Z,954.69
2022-09-13T01:17:15.354Z,954.73
2022-09-13T01:18:15.339Z,954.72
2022-09-13T01:19:15.327Z,954.76
2022-09-13T01:20:15.320Z,954.69
2022-09-13T01:21:15.289Z,954.67
2022-09-13T01:22:15.449Z,954.67
2022-09-13T01:23:15.278Z,954.68
2022-09-13T01:24:15.262Z,954.69
2022-09-13T01:25:15.245Z,954.66
2022-09-13T01:26:15.227Z,954.68
2022-09-13T01:27:15.197Z,954.74
2022-09-13T01:28:15.387Z,954.69
2022-09-13T01:29:15.175Z,954.72
2022-09-13T01:30:15.166Z,954.78
2022-09-13T01:31:15.202Z,954.75
2022-09-13T01:32:15.136Z,954.72
2022-09-13T01:33:15.143Z,954.74
2022-09-13T01:34:15.274Z,954.77
2022-09-13T01:35:15.100Z,954.76
2022-09-13T01:36:15.080Z,954.76
2022-09-13T01:37:15.097Z,954.77
2022-09-13T01:38:15.048Z,954.78
2022-09-13T01:39:15.091Z,954.72
2022-09-13T01:40:15.188Z,954.79
2022-09-13T01:41:15.004Z,954.76
2022-09-13T01:42:15.010Z,954.76
2022-09-13T01:43:14.985Z,954.77
2022-09-13T01:44:14.966Z,954.77
2022-09-13T01:45:14.986Z,954.76
2022-09-13T01:46:15.122Z,954.72
2022-09-13T01:47:14.946Z,954.80
2022-09-13T01:48:14.931Z,954.73
2022-09-13T01:49:14.904Z,954.76
2022-09-13T01:50:14.896Z,954.73
2022-09-13T01:51:14.896Z,954.74
2022-09-13T01:52:14.998Z,954.80
2022-09-13T01:53:14.853Z,954.71
2022-09-13T01:54:14.849Z,954.78
2022-09-13T01:55:14.809Z,954.76
2022-09-13T01:56:14.818Z,954.78
2022-09-13T01:57:14.983Z,954.76
2022-09-13T01:58:14.859Z,954.78
2022-09-13T01:59:14.755Z,954.77
2022-09-13T02:00:14.764Z,954.75
2022-09-13T02:01:14.775Z,954.81
2022-09-13T02:02:14.767Z,954.78
2022-09-13T02:03:14.899Z,954.83
2022-09-13T02:04:14.820Z,954.85
2022-09-13T02:05:14.674Z,954.83
2022-09-13T02:06:14.747Z,954.83
2022-09-13T02:07:14.663Z,954.86
2022-09-13T02:08:14.634Z,954.83
2022-09-13T02:09:17.550Z,954.81
2022-09-13T02:10:15.596Z,954.80
2022-09-13T02:11:14.586Z,954.79
2022-09-13T02:12:14.738Z,954.82
2022-09-13T02:13:14.563Z,954.83
2022-09-13T02:14:14.558Z,954.86
2022-09-13T02:15:14.564Z,954.94
2022-09-13T02:16:14.619Z,954.91
2022-09-13T02:17:14.510Z,954.94
2022-09-13T02:18:14.672Z,954.93
2022-09-13T02:19:14.480Z,954.88
2022-09-13T02:20:14.478Z,954.92
2022-09-13T02:21:14.472Z,954.90
2022-09-13T02:22:14.450Z,954.88
2022-09-13T02:23:14.431Z,954.87
2022-09-13T02:24:14.522Z,954.88
2022-09-13T02:25:14.401Z,954.89
2022-09-13T02:26:14.388Z,954.90
2022-09-13T02:27:14.393Z,954.89
2022-09-13T02:28:14.370Z,954.93
2022-09-13T02:29:14.348Z,954.91
2022-09-13T02:30:14.435Z,954.88
2022-09-13T02:31:14.346Z,954.86
2022-09-13T02:32:14.324Z,954.88
2022-09-13T02:33:14.327Z,954.87
2022-09-13T02:34:14.273Z,954.83
2022-09-13T02:35:14.268Z,954.82
2022-09-13T02:36:14.345Z,954.82
2022-09-13T02:37:14.234Z,954.80
2022-09-13T02:38:14.227Z,954.82
2022-09-13T02:39:14.382Z,954.80
2022-09-13T02:40:14.281Z,954.81
2022-09-13T02:41:14.166Z,954.80
2022-09-13T02:42:14.324Z,954.76
2022-09-13T02:43:14.145Z,954.77
2022-09-13T02:44:14.152Z,954.74
2022-09-13T02:45:14.366Z,954.73
2022-09-13T02:46:14.133Z,954.74
2022-09-13T02:47:14.107Z,954.73
2022-09-13T02:48:14.241Z,954.69
2022-09-13T02:49:14.093Z,954.68
2022-09-13T02:50:14.068Z,954.61
2022-09-13T02:51:14.077Z,954.59
2022-09-13T02:52:14.212Z,954.60
2022-09-13T02:53:14.020Z,954.57
2022-09-13T02:54:14.160Z,954.55
2022-09-13T02:55:13.981Z,954.56
2022-09-13T02:56:13.970Z,954.56
2022-09-13T02:57:13.954Z,954.57
2022-09-13T02:58:13.978Z,954.59
2022-09-13T02:59:13.924Z,954.55
2022-09-13T03:00:14.061Z,954.60
2022-09-13T03:01:13.973Z,954.58
2022-09-13T03:02:13.932Z,954.60
2022-09-13T03:03:13.880Z,954.60
2022-09-13T03:04:13.894Z,954.60
2022-09-13T03:05:13.839Z,954.58
2022-09-13T03:06:13.918Z,954.56
2022-09-13T03:07:13.810Z,954.58
2022-09-13T03:08:13.809Z,954.61
2022-09-13T03:09:13.789Z,954.62
2022-09-13T03:10:13.823Z,954.63
2022-09-13T03:11:13.761Z,954.67
2022-09-13T03:12:13.970Z,954.63
2022-09-13T03:13:13.732Z,954.63
2022-09-13T03:14:13.738Z,954.63
2022-09-13T03:15:13.701Z,954.65
2022-09-13T03:16:13.902Z,954.61
2022-09-13T03:17:13.682Z,954.64
2022-09-13T03:18:13.820Z,954.62
2022-09-13T03:19:13.646Z,954.61
2022-09-13T03:20:13.637Z,954.61
2022-09-13T03:21:13.617Z,954.62
2022-09-13T03:22:13.658Z,954.64
2022-09-13T03:23:13.599Z,954.64
2022-09-13T03:24:13.690Z,954.63
2022-09-13T03:25:13.567Z,954.67
2022-09-13T03:26:13.546Z,954.62
2022-09-13T03:27:13.540Z,954.59
2022-09-13T03:28:13.602Z,954.67
2022-09-13T03:29:13.514Z,954.60
2022-09-13T03:30:13.586Z,954.64
2022-09-13T03:31:14.098Z,954.65
2022-09-13T03:32:13.510Z,954.63
2022-09-13T03:33:13.452Z,954.68
2022-09-13T03:34:13.470Z,954.63
2022-09-13T03:35:13.427Z,954.61
2022-09-13T03:36:13.521Z,954.64
2022-09-13T03:37:13.392Z,954.67
2022-09-13T03:38:13.383Z,954.70
2022-09-13T03:39:15.214Z,954.73
2022-09-13T03:40:13.427Z,954.71
2022-09-13T03:41:14.145Z,954.74
2022-09-13T03:42:13.469Z,954.72
2022-09-13T03:43:13.330Z,954.76
2022-09-13T03:44:13.305Z,954.75
2022-09-13T03:45:13.311Z,954.76
2022-09-13T03:46:13.399Z,954.75
2022-09-13T03:47:13.313Z,954.72
2022-09-13T03:48:13.333Z,954.73
2022-09-13T03:49:13.243Z,954.77
2022-09-13T03:50:13.212Z,954.71
2022-09-13T03:51:13.320Z,954.74
2022-09-13T03:52:13.298Z,954.71
2022-09-13T03:53:13.193Z,954.72
2022-09-13T03:54:13.288Z,954.67
2022-09-13T03:55:13.227Z,954.66
2022-09-13T03:56:13.257Z,954.67
2022-09-13T03:57:13.175Z,954.70
2022-09-13T03:58:13.217Z,954.66
2022-09-13T03:59:13.197Z,954.64
2022-09-13T04:00:13.216Z,954.69
2022-09-13T04:01:13.205Z,954.68
2022-09-13T04:02:13.148Z,954.66
2022-09-13T04:03:13.145Z,954.65
2022-09-13T04:04:13.148Z,954.67
2022-09-13T04:08:44.606Z,954.67
2022-09-13T04:09:44.501Z,954.66
2022-09-13T04:10:44.359Z,954.68
2022-09-13T04:11:44.380Z,954.68
2022-09-13T04:12:44.335Z,954.66
2022-09-13T04:13:44.313Z,954.67
2022-09-13T04:14:44.530Z,954.71
2022-09-13T04:15:44.364Z,954.70
2022-09-13T04:16:44.340Z,954.77
2022-09-13T04:17:44.553Z,954.79
2022-09-13T04:18:44.257Z,954.76
2022-09-13T04:19:44.415Z,954.78
2022-09-13T04:20:44.388Z,954.77
2022-09-13T04:21:44.339Z,954.77
2022-09-13T04:22:44.194Z,954.78
2022-09-13T04:23:44.311Z,954.79
2022-09-13T04:24:44.175Z,954.76
2022-09-13T04:25:44.259Z,954.75
2022-09-13T04:26:44.347Z,954.76
2022-09-13T04:27:44.267Z,954.82
2022-09-13T04:28:44.122Z,954.83
2022-09-13T04:29:44.137Z,954.85
2022-09-13T04:30:44.085Z,954.91
2022-09-13T04:31:44.158Z,954.85
2022-09-13T04:32:44.229Z,954.87
2022-09-13T04:33:44.151Z,954.80
2022-09-13T04:34:44.026Z,954.80
2022-09-13T04:35:44.172Z,954.74
2022-09-13T04:36:44.012Z,954.71
2022-09-13T04:37:44.021Z,954.72
2022-09-13T04:38:44.071Z,954.69
2022-09-13T04:39:44.126Z,954.65
2022-09-13T04:40:43.946Z,954.67
2022-09-13T04:41:43.969Z,954.64
2022-09-13T04:42:43.913Z,954.69
2022-09-13T04:43:44.004Z,954.73
2022-09-13T04:44:43.982Z,954.71
2022-09-13T04:45:44.012Z,954.69
2022-09-13T04:46:43.982Z,954.69
2022-09-13T04:47:43.873Z,954.65
2022-09-13T04:48:43.842Z,954.65
2022-09-13T04:49:43.830Z,954.71
2022-09-13T04:50:43.895Z,954.67
2022-09-13T04:51:43.848Z,954.68
2022-09-13T04:52:43.779Z,954.73
2022-09-13T04:53:43.754Z,954.71
2022-09-13T04:54:43.758Z,954.72
2022-09-13T04:55:43.820Z,954.75
2022-09-13T04:56:43.922Z,954.74
2022-09-13T04:57:43.986Z,954.80
2022-09-13T04:58:43.695Z,954.76
2022-09-13T04:59:43.855Z,954.85
2022-09-13T05:00:43.806Z,954.92
2022-09-13T05:01:43.956Z,954.88
2022-09-13T05:02:43.862Z,954.92
2022-09-13T05:03:43.763Z,954.90
2022-09-13T05:04:43.615Z,954.91
2022-09-13T05:05:43.736Z,954.90
2022-09-13T05:06:43.583Z,954.98
2022-09-13T05:07:43.610Z,954.95
2022-09-13T05:08:43.649Z,954.96
2022-09-13T05:09:43.595Z,955.01
2022-09-13T05:10:43.525Z,955.02
2022-09-13T05:11:43.672Z,955.01
2022-09-13T05:12:43.512Z,955.04
2022-09-13T05:13:43.551Z,955.01
2022-09-13T05:14:43.701Z,955.08
2022-09-13T05:15:43.656Z,955.03
2022-09-13T05:16:43.453Z,955.04
2022-09-13T05:17:43.600Z,954.99
2022-09-13T05:18:45.389Z,954.98
2022-09-13T05:19:43.403Z,954.95
2022-09-13T05:20:43.540Z,954.94
2022-09-13T05:21:43.434Z,954.97
2022-09-13T05:22:43.374Z,954.93
2022-09-13T05:23:43.361Z,954.91
2022-09-13T05:24:43.342Z,954.89
2022-09-13T05:25:43.598Z,954.91
2022-09-13T05:26:43.468Z,954.87
2022-09-13T05:27:43.462Z,954.86
2022-09-13T05:28:43.341Z,954.92
2022-09-13T05:29:43.390Z,954.89
2022-09-13T05:30:43.256Z,954.95
2022-09-13T05:31:43.240Z,954.89
2022-09-13T05:32:43.301Z,954.90
2022-09-13T05:33:43.253Z,954.92
2022-09-13T05:34:43.193Z,954.94
2022-09-13T05:35:43.206Z,954.91
2022-09-13T05:36:43.180Z,954.89
2022-09-13T05:37:43.335Z,954.85
2022-09-13T05:38:43.276Z,954.90
2022-09-13T05:40:09.681Z,954.85
2022-09-13T05:40:44.173Z,954.87
2022-09-13T05:41:43.469Z,954.79
2022-09-13T05:42:43.091Z,954.81
2022-09-13T05:43:43.132Z,954.79
2022-09-13T05:44:43.332Z,954.81
2022-09-13T05:45:43.186Z,954.77
2022-09-13T05:46:43.053Z,954.77
2022-09-13T05:47:43.203Z,954.76
2022-09-13T05:48:43.077Z,954.77
2022-09-13T05:50:03.471Z,954.76
2022-09-13T05:50:57.639Z,954.74
2022-09-13T05:51:43.966Z,954.73
2022-09-13T05:52:42.992Z,954.73
2022-09-13T05:53:43.062Z,954.77
2022-09-13T05:54:42.985Z,954.79
2022-09-13T05:55:42.906Z,954.78
2022-09-13T05:56:43.276Z,954.82
2022-09-13T05:57:42.884Z,954.83
2022-09-13T05:58:42.912Z,954.79
2022-09-13T05:59:42.878Z,954.82
2022-09-13T06:00:42.902Z,954.84
2022-09-13T06:01:43.057Z,954.81
2022-09-13T06:02:43.426Z,954.76
2022-09-13T06:03:42.810Z,954.76
2022-09-13T06:04:42.774Z,954.76
2022-09-13T06:05:42.768Z,954.73
2022-09-13T06:06:42.768Z,954.72
2022-09-13T06:07:42.763Z,954.68
2022-09-13T06:08:43.136Z,954.66
2022-09-13T06:09:42.865Z,954.67
2022-09-13T06:10:42.740Z,954.64
2022-09-13T06:11:42.727Z,954.65
2022-09-13T06:12:43.225Z,954.61
2022-09-13T06:13:42.653Z,954.58
2022-09-13T06:14:42.800Z,954.55
2022-09-13T06:15:43.495Z,954.54
2022-09-13T06:16:42.657Z,954.57
2022-09-13T06:17:42.622Z,954.61
2022-09-13T06:18:42.643Z,954.60
2022-09-13T06:19:42.742Z,954.64
2022-09-13T06:20:43.196Z,954.60
2022-09-13T06:21:42.929Z,954.65
2022-09-13T06:22:42.529Z,954.61
2022-09-13T06:23:42.749Z,954.64
2022-09-13T06:24:42.503Z,954.61
2022-09-13T06:25:42.628Z,954.59
2022-09-13T06:26:42.735Z,954.56
2022-09-13T06:27:42.525Z,954.53
2022-09-13T06:28:42.500Z,954.59
2022-09-13T06:29:42.553Z,954.55
2022-09-13T06:30:42.414Z,954.60
2022-09-13T06:31:42.517Z,954.56
2022-09-13T06:32:42.573Z,954.57
2022-09-13T06:33:46.298Z,954.59
2022-09-13T06:34:42.349Z,954.59
2022-09-13T06:35:42.595Z,954.58
2022-09-13T06:36:42.443Z,954.58
2022-09-13T06:37:42.431Z,954.59
2022-09-13T06:38:42.708Z,954.56
2022-09-13T06:39:42.499Z,954.52
2022-09-13T06:40:42.326Z,954.53
2022-09-13T06:41:42.416Z,954.53
2022-09-13T06:42:42.248Z,954.59
2022-09-13T06:43:42.449Z,954.57
2022-09-13T06:44:42.374Z,954.56
2022-09-13T06:45:42.361Z,954.62
2022-09-13T06:46:42.242Z,954.54
2022-09-13T06:47:42.299Z,954.49
2022-09-13T06:48:42.220Z,954.53
2022-09-13T06:49:42.332Z,954.45
2022-09-13T06:50:42.465Z,954.45
2022-09-13T06:51:42.318Z,954.44
2022-09-13T06:52:42.134Z,954.50
2022-09-13T06:53:42.280Z,954.55
2022-09-13T06:54:42.095Z,954.51
2022-09-13T06:55:42.254Z,954.49
2022-09-13T06:56:42.251Z,954.49
2022-09-13T06:57:42.176Z,954.49
2022-09-13T06:58:42.171Z,954.48
2022-09-13T06:59:42.247Z,954.40
2022-09-13T07:00:42.033Z,954.37
2022-09-13T07:01:42.690Z,954.34
2022-09-13T07:02:42.173Z,954.33
2022-09-13T07:03:41.967Z,954.31
2022-09-13T07:04:41.954Z,954.31
2022-09-13T07:05:42.116Z,954.26
2022-09-13T07:06:41.906Z,954.28
2022-09-13T07:07:42.024Z,954.26
2022-09-13T07:08:42.112Z,954.27
2022-09-13T07:09:42.069Z,954.23
2022-09-13T07:10:41.864Z,954.22
2022-09-13T07:11:42.015Z,954.17
2022-09-13T07:12:41.834Z,954.22
2022-09-13T07:13:42.032Z,954.19
2022-09-13T07:14:41.957Z,954.18
2022-09-13T07:15:42.001Z,954.19
2022-09-13T07:16:41.831Z,954.19
2022-09-13T07:17:41.940Z,954.16
2022-09-13T07:18:41.753Z,954.17
2022-09-13T07:19:41.910Z,954.15
2022-09-13T07:20:41.875Z,954.14
2022-09-13T07:21:41.911Z,954.18
2022-09-13T07:22:41.729Z,954.18
2022-09-13T07:23:41.895Z,954.22
2022-09-13T07:24:41.657Z,954.20
2022-09-13T07:25:41.840Z,954.16
2022-09-13T07:26:41.905Z,954.14
2022-09-13T07:27:41.864Z,954.11
2022-09-13T07:28:41.608Z,954.14
2022-09-13T07:29:41.596Z,954.09
2022-09-13T07:30:41.606Z,954.10
2022-09-13T07:31:41.695Z,954.12
2022-09-13T07:32:41.722Z,954.12
2022-09-13T07:33:41.752Z,954.17
2022-09-13T07:34:41.526Z,954.10
2022-09-13T07:35:41.634Z,954.11
2022-09-13T07:36:41.499Z,954.14
2022-09-13T07:37:41.669Z,954.19
2022-09-13T07:38:41.660Z,954.20
2022-09-13T07:39:41.533Z,954.23
2022-09-13T07:40:41.459Z,954.24
2022-09-13T07:41:41.471Z,954.25
2022-09-13T07:42:41.444Z,954.29
2022-09-13T07:43:41.490Z,954.31
2022-09-13T07:44:41.654Z,954.30
2022-09-13T07:45:41.504Z,954.25
2022-09-13T07:46:41.422Z,954.27
2022-09-13T07:47:41.496Z,954.28
2022-09-13T07:48:41.403Z,954.26
2022-09-13T07:49:41.481Z,954.29
2022-09-13T07:50:41.474Z,954.32
2022-09-13T07:51:41.499Z,954.31
2022-09-13T07:52:41.263Z,954.27
2022-09-13T07:53:41.716Z,954.32
2022-09-13T07:54:41.238Z,954.31
2022-09-13T07:55:41.360Z,954.36
2022-09-13T07:56:41.430Z,954.38
2022-09-13T07:57:41.442Z,954.32
2022-09-13T07:58:41.185Z,954.35
2022-09-13T07:59:41.239Z,954.38
2022-09-13T08:00:41.162Z,954.31
2022-09-13T08:01:41.521Z,954.34
2022-09-13T08:02:41.400Z,954.33
2022-09-13T08:03:41.133Z,954.33
2022-09-13T08:04:41.109Z,954.30
2022-09-13T08:05:41.323Z,954.27
2022-09-13T08:06:41.215Z,954.25
2022-09-13T08:07:42.126Z,954.24
2022-09-13T08:08:41.345Z,954.20
2022-09-13T08:09:41.186Z,954.21
2022-09-13T08:10:41.014Z,954.24
2022-09-13T08:11:41.162Z,954.24
2022-09-13T08:12:40.999Z,954.28
2022-09-13T08:13:41.121Z,954.30
2022-09-13T08:14:41.082Z,954.27
2022-09-13T08:15:41.179Z,954.27
2022-09-13T08:16:40.933Z,954.22
2022-09-13T08:17:41.161Z,954.26
2022-09-13T08:18:40.916Z,954.21
2022-09-13T08:19:40.905Z,954.24
2022-09-13T08:20:41.069Z,954.22
2022-09-13T08:21:40.957Z,954.21
2022-09-13T08:22:40.866Z,954.23
2022-09-13T08:23:41.032Z,954.24
2022-09-13T08:24:40.823Z,954.20
2022-09-13T08:25:41.010Z,954.25
2022-09-13T08:26:41.041Z,954.23
2022-09-13T08:27:40.852Z,954.22
2022-09-13T08:28:40.762Z,954.23
2022-09-13T08:29:40.820Z,954.22
2022-09-13T08:30:40.798Z,954.23
2022-09-13T08:31:40.808Z,954.21
2022-09-13T08:32:40.845Z,954.17
2022-09-13T08:33:45.538Z,954.25
2022-09-13T08:34:41.689Z,954.27
2022-09-13T08:35:44.578Z,954.27
2022-09-13T08:36:40.656Z,954.28
2022-09-13T08:37:40.898Z,954.24
2022-09-13T08:38:40.818Z,954.26
2022-09-13T08:39:40.827Z,954.29
2022-09-13T08:40:40.635Z,954.29
2022-09-13T08:41:40.682Z,954.27
2022-09-13T08:42:40.582Z,954.26
2022-09-13T08:43:40.685Z,954.28
2022-09-13T08:44:40.688Z,954.22
2022-09-13T08:45:40.739Z,954.23
2022-09-13T08:46:40.551Z,954.20
2022-09-13T08:47:40.655Z,954.22
2022-09-13T08:48:40.493Z,954.19
2022-09-13T08:49:40.535Z,954.16
2022-09-13T08:50:40.638Z,954.18
2022-09-13T08:51:40.544Z,954.14
2022-09-13T08:52:40.441Z,954.19
2022-09-13T08:53:40.485Z,954.21
2022-09-13T08:54:40.564Z,954.23
2022-09-13T08:55:40.613Z,954.19
2022-09-13T08:56:40.390Z,954.22
2022-09-13T08:57:40.448Z,954.20
2022-09-13T08:58:40.339Z,954.21
2022-09-13T08:59:40.411Z,954.23
2022-09-13T09:00:40.413Z,954.22
2022-09-13T09:01:40.428Z,954.23
2022-09-13T09:02:40.404Z,954.25
2022-09-13T09:03:40.490Z,954.22
2022-09-13T09:04:40.259Z,954.17
2022-09-13T09:05:40.691Z,954.14
2022-09-13T09:06:40.448Z,954.15
2022-09-13T09:07:40.394Z,954.07
2022-09-13T09:08:40.254Z,954.10
2022-09-13T09:09:40.295Z,954.12
2022-09-13T09:10:40.189Z,954.05
2022-09-13T09:11:40.385Z,954.04
2022-09-13T09:12:40.378Z,954.07
2022-09-13T09:13:40.263Z,954.11
2022-09-13T09:14:40.211Z,954.08
2022-09-13T09:15:40.279Z,954.06
2022-09-13T09:16:40.111Z,954.03
2022-09-13T09:17:40.245Z,954.04
2022-09-13T09:18:40.224Z,953.99
2022-09-13T09:19:40.250Z,954.05
2022-09-13T09:20:40.084Z,953.98
2022-09-13T09:21:40.165Z,953.98
2022-09-13T09:22:40.020Z,953.98
2022-09-13T09:23:40.156Z,953.95
2022-09-13T09:24:40.147Z,953.95
2022-09-13T09:25:40.095Z,953.93
2022-09-13T09:26:40.009Z,953.89
2022-09-13T09:27:40.047Z,953.95
2022-09-13T09:28:39.935Z,953.94
2022-09-13T09:29:40.229Z,953.96
2022-09-13T09:30:40.159Z,953.97
2022-09-13T09:31:39.996Z,953.99
2022-09-13T09:32:39.913Z,954.00
2022-09-13T09:33:40.012Z,953.98
2022-09-13T09:34:39.853Z,953.98
2022-09-13T09:35:39.991Z,953.93
2022-09-13T09:36:39.961Z,953.96
2022-09-13T09:37:39.911Z,953.94
2022-09-13T09:38:39.835Z,953.95
2022-09-13T09:39:39.997Z,954.00
2022-09-13T09:40:39.783Z,953.98
2022-09-13T09:41:39.830Z,953.95
2022-09-13T09:42:40.003Z,954.01
2022-09-13T09:43:40.101Z,954.02
2022-09-13T09:44:39.753Z,954.00
2022-09-13T09:45:39.781Z,954.02
2022-09-13T09:46:39.690Z,953.99
2022-09-13T09:47:39.760Z,953.98
2022-09-13T09:48:39.833Z,954.02
2022-09-13T09:49:39.758Z,954.01
2022-09-13T09:50:39.814Z,954.00
2022-09-13T09:51:40.005Z,953.97
2022-09-13T09:52:39.600Z,953.93
2022-09-13T09:53:39.785Z,953.89
2022-09-13T09:54:39.788Z,953.88
2022-09-13T09:55:39.729Z,953.84
2022-09-13T09:56:39.577Z,953.85
2022-09-13T09:57:39.754Z,953.89
2022-09-13T09:58:39.529Z,953.87
2022-09-13T09:59:39.574Z,953.85
2022-09-13T10:00:39.632Z,953.82
2022-09-13T10:01:39.615Z,953.79
2022-09-13T10:02:39.538Z,953.78
2022-09-13T10:03:39.565Z,953.76
2022-09-13T10:04:39.432Z,953.78
2022-09-13T10:05:39.556Z,953.74
2022-09-13T10:06:39.629Z,953.75
2022-09-13T10:07:39.551Z,953.74
2022-09-13T10:08:39.568Z,953.70
2022-09-13T10:09:39.845Z,953.72
2022-09-13T10:10:39.351Z,953.75
2022-09-13T10:11:39.467Z,953.75
2022-09-13T10:12:39.471Z,953.67
2022-09-13T10:13:39.406Z,953.71
2022-09-13T10:14:39.321Z,953.74
2022-09-13T10:15:39.413Z,953.74
2022-09-13T10:16:39.329Z,953.71
2022-09-13T10:17:39.521Z,953.71
2022-09-13T10:18:44.517Z,953.71
2022-09-13T10:19:40.367Z,953.66
2022-09-13T10:20:39.207Z,953.68
2022-09-13T10:21:39.317Z,953.65
2022-09-13T10:22:39.178Z,953.69
2022-09-13T10:23:39.318Z,953.70
2022-09-13T10:24:39.294Z,953.65
2022-09-13T10:25:39.282Z,953.62
2022-09-13T10:26:39.147Z,953.60
2022-09-13T10:27:39.306Z,953.59
2022-09-13T10:28:39.107Z,953.63
2022-09-13T10:29:39.263Z,953.59
2022-09-13T10:30:39.346Z,953.57
2022-09-13T10:31:39.259Z,953.55
2022-09-13T10:32:39.043Z,953.61
2022-09-13T10:33:39.236Z,953.64
2022-09-13T10:34:39.019Z,953.62
2022-09-13T10:35:39.116Z,953.59
2022-09-13T10:36:52.141Z,953.59
2022-09-13T10:37:40.253Z,953.60
2022-09-13T10:38:45.994Z,953.60
2022-09-13T10:39:40.278Z,953.61
2022-09-13T10:40:38.935Z,953.61
2022-09-13T10:41:39.163Z,953.61
2022-09-13T10:42:39.084Z,953.57
2022-09-13T10:43:39.179Z,953.54
2022-09-13T10:44:38.887Z,953.58
2022-09-13T10:45:39.273Z,953.51
2022-09-13T10:46:38.864Z,953.56
2022-09-13T10:47:39.043Z,953.53
2022-09-13T10:48:38.901Z,953.56
2022-09-13T10:49:39.053Z,953.55
2022-09-13T10:50:38.795Z,953.53
2022-09-13T10:51:39.056Z,953.53
2022-09-13T10:52:38.778Z,953.48
2022-09-13T10:53:38.919Z,953.51
2022-09-13T10:54:38.902Z,953.46
2022-09-13T10:55:40.365Z,953.49
2022-09-13T10:56:38.711Z,953.44
2022-09-13T10:57:38.914Z,953.44
2022-09-13T10:58:38.702Z,953.41
2022-09-13T10:59:39.887Z,953.44
2022-09-13T11:00:38.808Z,953.38
2022-09-13T11:01:40.539Z,953.39
2022-09-13T11:02:38.636Z,953.39
2022-09-13T11:03:39.040Z,953.35
2022-09-13T11:04:38.607Z,953.34
2022-09-13T11:05:38.809Z,953.32
2022-09-13T11:06:38.713Z,953.26
2022-09-13T11:07:38.716Z,953.24
2022-09-13T11:08:38.554Z,953.22
2022-09-13T11:09:38.822Z,953.25
2022-09-13T11:10:38.515Z,953.19
2022-09-13T11:11:38.642Z,953.22
2022-09-13T11:12:38.588Z,953.22
2022-09-13T11:13:41.843Z,953.16
2022-09-13T11:14:39.667Z,953.19
2022-09-13T11:15:38.591Z,953.15
2022-09-13T11:16:38.518Z,953.16
2022-09-13T11:17:38.558Z,953.16
2022-09-13T11:18:38.506Z,953.12
2022-09-13T11:19:38.732Z,953.14
2022-09-13T11:20:38.389Z,953.14
2022-09-13T11:21:38.518Z,953.09
2022-09-13T11:22:38.339Z,953.11
2022-09-13T11:23:38.676Z,953.10
2022-09-13T11:24:38.416Z,953.10
2022-09-13T11:25:38.505Z,953.07
2022-09-13T11:26:38.742Z,953.02
2022-09-13T11:27:38.532Z,953.02
2022-09-13T11:28:38.263Z,953.01
2022-09-13T11:29:38.538Z,952.96
2022-09-13T11:30:38.354Z,952.94
2022-09-13T11:31:38.634Z,952.91
2022-09-13T11:32:38.215Z,952.83
2022-09-13T11:33:38.582Z,952.85
2022-09-13T11:34:38.188Z,952.86
2022-09-13T11:35:39.241Z,952.86
2022-09-13T11:36:38.163Z,952.85
2022-09-13T11:37:38.419Z,952.87
2022-09-13T11:38:38.131Z,952.85
2022-09-13T11:39:38.310Z,952.88
2022-09-13T11:40:38.091Z,952.85
2022-09-13T11:41:38.447Z,952.88
2022-09-13T11:42:38.077Z,952.84
2022-09-13T11:43:38.586Z,952.89
2022-09-13T11:44:38.084Z,952.86
2022-09-13T11:45:38.278Z,952.86
2022-09-13T11:46:38.013Z,952.85
2022-09-13T11:47:38.236Z,952.83
2022-09-13T11:48:37.984Z,952.84
2022-09-13T11:49:40.183Z,952.83
2022-09-13T11:50:37.957Z,952.83
2022-09-13T11:51:38.284Z,952.79
2022-09-13T11:52:37.929Z,952.75
2022-09-13T11:53:38.321Z,952.76
2022-09-13T11:54:37.908Z,952.77
2022-09-13T11:55:38.127Z,952.70
2022-09-13T11:56:37.889Z,952.69
2022-09-13T11:57:38.044Z,952.70
2022-09-13T11:58:37.852Z,952.70
2022-09-13T11:59:38.771Z,952.71
2022-09-13T12:00:37.833Z,952.68
2022-09-13T12:01:38.154Z,952.69
2022-09-13T12:02:37.921Z,952.72
2022-09-13T12:03:37.909Z,952.76
2022-09-13T12:04:37.763Z,952.71
2022-09-13T12:05:38.789Z,952.70
2022-09-13T12:06:37.742Z,952.69
2022-09-13T12:07:38.466Z,952.71
2022-09-13T12:08:37.718Z,952.67
2022-09-13T12:09:37.830Z,952.67
2022-09-13T12:10:37.700Z,952.65
2022-09-13T12:11:38.103Z,952.67
2022-09-13T12:12:37.683Z,952.60
2022-09-13T12:13:38.237Z,952.59
2022-09-13T12:14:37.632Z,952.58
2022-09-13T12:15:37.754Z,952.57
2022-09-13T12:16:37.659Z,952.55
2022-09-13T12:17:37.844Z,952.51
2022-09-13T12:18:37.575Z,952.52
2022-09-13T12:19:37.786Z,952.50
2022-09-13T12:20:37.542Z,952.44
2022-09-13T12:21:37.625Z,952.43
2022-09-13T12:22:37.516Z,952.47
2022-09-13T12:23:37.863Z,952.43
2022-09-13T12:24:37.488Z,952.43
2022-09-13T12:25:37.623Z,952.39
2022-09-13T12:26:37.459Z,952.39
2022-09-13T12:27:39.934Z,952.44
2022-09-13T12:28:37.446Z,952.42
2022-09-13T12:29:37.632Z,952.41
2022-09-13T12:30:37.420Z,952.41
2022-09-13T12:31:37.781Z,952.40